sensor_id;sensor_type;location;lat;lon;timestamp;temperature;humidity
51476;DHT22;37554;50.362;7.568;2022-11-21T00:01:22;17.90;52.90
51476;DHT22;37554;50.362;7.568;2022-11-21T00:03:48;17.90;52.80
51476;DHT22;37554;50.362;7.568;2022-11-21T00:06:15;17.80;52.80
51476;DHT22;37554;50.362;7.568;2022-11-21T00:08:40;17.90;52.80
51476;DHT22;37554;50.362;7.568;2022-11-21T00:11:06;17.90;52.80
51476;DHT22;37554;50.362;7.568;2022-11-21T00:13:32;17.90;53.40
51476;DHT22;37554;50.362;7.568;2022-11-21T00:16:09;17.80;52.70
51476;DHT22;37554;50.362;7.568;2022-11-21T00:18:35;17.80;52.70
51476;DHT22;37554;50.362;7.568;2022-11-21T00:21:10;17.80;52.70
51476;DHT22;37554;50.362;7.568;2022-11-21T00:23:36;17.80;52.70
51476;DHT22;37554;50.362;7.568;2022-11-21T00:26:06;17.80;52.70
51476;DHT22;37554;50.362;7.568;2022-11-21T00:28:32;17.80;52.70
51476;DHT22;37554;50.362;7.568;2022-11-21T00:30:58;17.80;52.70
51476;DHT22;37554;50.362;7.568;2022-11-21T00:33:24;17.80;52.80
51476;DHT22;37554;50.362;7.568;2022-11-21T00:35:50;17.80;52.80
51476;DHT22;37554;50.362;7.568;2022-11-21T00:38:15;17.80;52.80
51476;DHT22;37554;50.362;7.568;2022-11-21T00:40:44;17.80;52.80
51476;DHT22;37554;50.362;7.568;2022-11-21T00:43:10;17.80;52.90
51476;DHT22;37554;50.362;7.568;2022-11-21T00:45:36;17.80;52.90
51476;DHT22;37554;50.362;7.568;2022-11-21T00:48:02;17.80;52.90
51476;DHT22;37554;50.362;7.568;2022-11-21T00:50:28;17.80;53.00
51476;DHT22;37554;50.362;7.568;2022-11-21T00:52:57;17.80;53.00
51476;DHT22;37554;50.362;7.568;2022-11-21T00:55:24;17.80;53.70
51476;DHT22;37554;50.362;7.568;2022-11-21T00:57:50;17.80;53.10
51476;DHT22;37554;50.362;7.568;2022-11-21T01:00:16;17.80;53.10
51476;DHT22;37554;50.362;7.568;2022-11-21T01:02:42;17.70;53.10
51476;DHT22;37554;50.362;7.568;2022-11-21T01:05:07;17.70;53.10
51476;DHT22;37554;50.362;7.568;2022-11-21T01:07:33;17.70;53.10
51476;DHT22;37554;50.362;7.568;2022-11-21T01:09:59;17.70;53.20
51476;DHT22;37554;50.362;7.568;2022-11-21T01:12:24;17.70;53.20
51476;DHT22;37554;50.362;7.568;2022-11-21T01:14:50;17.70;53.20
51476;DHT22;37554;50.362;7.568;2022-11-21T01:17:15;17.70;53.30
51476;DHT22;37554;50.362;7.568;2022-11-21T01:19:41;17.70;53.30
51476;DHT22;37554;50.362;7.568;2022-11-21T01:22:07;17.70;53.30
51476;DHT22;37554;50.362;7.568;2022-11-21T01:24:32;17.70;53.30
51476;DHT22;37554;50.362;7.568;2022-11-21T01:26:58;17.70;53.30
51476;DHT22;37554;50.362;7.568;2022-11-21T01:29:23;17.70;53.30
51476;DHT22;37554;50.362;7.568;2022-11-21T01:31:49;17.70;53.30
51476;DHT22;37554;50.362;7.568;2022-11-21T01:34:15;17.70;53.40
51476;DHT22;37554;50.362;7.568;2022-11-21T01:36:41;17.70;53.40
51476;DHT22;37554;50.362;7.568;2022-11-21T01:39:07;17.70;53.40
51476;DHT22;37554;50.362;7.568;2022-11-21T01:41:35;17.70;53.40
51476;DHT22;37554;50.362;7.568;2022-11-21T01:44:14;17.70;53.40
51476;DHT22;37554;50.362;7.568;2022-11-21T01:46:41;17.70;53.50
51476;DHT22;37554;50.362;7.568;2022-11-21T01:49:25;17.70;53.50
51476;DHT22;37554;50.362;7.568;2022-11-21T01:54:49;17.60;53.50
51476;DHT22;37554;50.362;7.568;2022-11-21T01:57:23;17.60;53.50
51476;DHT22;37554;50.362;7.568;2022-11-21T01:59:58;17.60;53.60
51476;DHT22;37554;50.362;7.568;2022-11-21T02:02:30;17.60;53.60
51476;DHT22;37554;50.362;7.568;2022-11-21T02:04:59;17.60;53.60
51476;DHT22;37554;50.362;7.568;2022-11-21T02:07:26;17.60;53.60
51476;DHT22;37554;50.362;7.568;2022-11-21T02:09:56;17.60;53.60
51476;DHT22;37554;50.362;7.568;2022-11-21T02:12:33;17.60;53.60
51476;DHT22;37554;50.362;7.568;2022-11-21T02:15:02;17.70;53.70
51476;DHT22;37554;50.362;7.568;2022-11-21T02:17:29;17.60;53.60
51476;DHT22;37554;50.362;7.568;2022-11-21T02:20:03;17.60;53.70
51476;DHT22;37554;50.362;7.568;2022-11-21T02:25:08;17.60;53.70
51476;DHT22;37554;50.362;7.568;2022-11-21T02:27:34;17.60;53.70
51476;DHT22;37554;50.362;7.568;2022-11-21T02:30:04;17.60;53.80
51476;DHT22;37554;50.362;7.568;2022-11-21T02:32:38;17.60;53.80
51476;DHT22;37554;50.362;7.568;2022-11-21T02:35:05;17.60;53.80
51476;DHT22;37554;50.362;7.568;2022-11-21T02:37:32;17.60;53.80
51476;DHT22;37554;50.362;7.568;2022-11-21T02:40:03;17.60;53.80
51476;DHT22;37554;50.362;7.568;2022-11-21T02:42:35;17.60;53.80
51476;DHT22;37554;50.362;7.568;2022-11-21T02:47:37;17.60;53.80
51476;DHT22;37554;50.362;7.568;2022-11-21T02:50:09;17.50;53.80
51476;DHT22;37554;50.362;7.568;2022-11-21T02:52:36;17.50;53.80
51476;DHT22;37554;50.362;7.568;2022-11-21T02:55:02;17.50;53.80
51476;DHT22;37554;50.362;7.568;2022-11-21T02:57:28;17.50;53.80
51476;DHT22;37554;50.362;7.568;2022-11-21T02:59:53;17.50;53.80
51476;DHT22;37554;50.362;7.568;2022-11-21T03:02:19;17.50;53.80
51476;DHT22;37554;50.362;7.568;2022-11-21T03:04:45;17.50;53.80
51476;DHT22;37554;50.362;7.568;2022-11-21T03:07:10;17.50;53.70
51476;DHT22;37554;50.362;7.568;2022-11-21T03:09:36;17.50;53.80
51476;DHT22;37554;50.362;7.568;2022-11-21T03:12:06;17.50;53.70
51476;DHT22;37554;50.362;7.568;2022-11-21T03:14:32;17.50;53.80
51476;DHT22;37554;50.362;7.568;2022-11-21T03:16:58;17.50;53.70
51476;DHT22;37554;50.362;7.568;2022-11-21T03:19:23;17.50;53.80
51476;DHT22;37554;50.362;7.568;2022-11-21T03:21:50;17.50;53.80
51476;DHT22;37554;50.362;7.568;2022-11-21T03:24:15;17.50;53.80
51476;DHT22;37554;50.362;7.568;2022-11-21T03:26:41;17.50;53.80
51476;DHT22;37554;50.362;7.568;2022-11-21T03:29:07;17.50;53.80
51476;DHT22;37554;50.362;7.568;2022-11-21T03:31:32;17.50;53.80
51476;DHT22;37554;50.362;7.568;2022-11-21T03:33:58;17.50;53.80
51476;DHT22;37554;50.362;7.568;2022-11-21T03:36:23;17.50;53.80
51476;DHT22;37554;50.362;7.568;2022-11-21T03:38:49;17.50;53.80
51476;DHT22;37554;50.362;7.568;2022-11-21T03:41:15;17.50;53.80
51476;DHT22;37554;50.362;7.568;2022-11-21T03:44:09;17.50;53.80
51476;DHT22;37554;50.362;7.568;2022-11-21T03:46:37;17.50;53.80
51476;DHT22;37554;50.362;7.568;2022-11-21T03:49:04;17.40;53.70
51476;DHT22;37554;50.362;7.568;2022-11-21T03:51:30;17.40;53.70
51476;DHT22;37554;50.362;7.568;2022-11-21T03:53:56;17.40;53.70
51476;DHT22;37554;50.362;7.568;2022-11-21T03:56:22;17.40;53.70
51476;DHT22;37554;50.362;7.568;2022-11-21T03:58:48;17.40;53.70
51476;DHT22;37554;50.362;7.568;2022-11-21T04:01:13;17.40;53.70
51476;DHT22;37554;50.362;7.568;2022-11-21T04:03:41;17.40;53.70
51476;DHT22;37554;50.362;7.568;2022-11-21T04:06:07;17.40;53.70
51476;DHT22;37554;50.362;7.568;2022-11-21T04:08:33;17.40;53.70
51476;DHT22;37554;50.362;7.568;2022-11-21T04:10:59;17.40;53.70
51476;DHT22;37554;50.362;7.568;2022-11-21T04:13:24;17.40;53.80
51476;DHT22;37554;50.362;7.568;2022-11-21T04:15:50;17.40;53.80
51476;DHT22;37554;50.362;7.568;2022-11-21T04:18:16;17.40;53.80
51476;DHT22;37554;50.362;7.568;2022-11-21T04:20:42;17.40;53.80
51476;DHT22;37554;50.362;7.568;2022-11-21T04:23:07;17.40;54.00
51476;DHT22;37554;50.362;7.568;2022-11-21T04:25:33;17.40;54.00
51476;DHT22;37554;50.362;7.568;2022-11-21T04:27:59;17.40;54.00
51476;DHT22;37554;50.362;7.568;2022-11-21T04:30:26;17.40;54.00
51476;DHT22;37554;50.362;7.568;2022-11-21T04:32:53;17.40;54.00
51476;DHT22;37554;50.362;7.568;2022-11-21T04:35:19;17.40;54.10
51476;DHT22;37554;50.362;7.568;2022-11-21T04:37:45;17.40;54.00
51476;DHT22;37554;50.362;7.568;2022-11-21T04:40:11;17.40;54.00
51476;DHT22;37554;50.362;7.568;2022-11-21T04:42:40;17.40;54.00
51476;DHT22;37554;50.362;7.568;2022-11-21T04:45:06;17.40;54.10
51476;DHT22;37554;50.362;7.568;2022-11-21T04:47:34;17.40;54.10
51476;DHT22;37554;50.362;7.568;2022-11-21T04:50:00;17.40;54.10
51476;DHT22;37554;50.362;7.568;2022-11-21T04:52:26;17.40;54.10
51476;DHT22;37554;50.362;7.568;2022-11-21T04:54:51;17.40;54.10
51476;DHT22;37554;50.362;7.568;2022-11-21T04:57:17;17.40;54.10
51476;DHT22;37554;50.362;7.568;2022-11-21T04:59:42;17.40;54.10
51476;DHT22;37554;50.362;7.568;2022-11-21T05:02:08;17.40;54.10
51476;DHT22;37554;50.362;7.568;2022-11-21T05:04:34;17.40;54.10
51476;DHT22;37554;50.362;7.568;2022-11-21T05:06:59;17.30;54.10
51476;DHT22;37554;50.362;7.568;2022-11-21T05:09:25;17.30;54.10
51476;DHT22;37554;50.362;7.568;2022-11-21T05:11:50;17.40;54.10
51476;DHT22;37554;50.362;7.568;2022-11-21T05:14:34;17.30;54.10
51476;DHT22;37554;50.362;7.568;2022-11-21T05:17:00;17.30;54.00
51476;DHT22;37554;50.362;7.568;2022-11-21T05:19:25;17.30;54.10
51476;DHT22;37554;50.362;7.568;2022-11-21T05:21:51;17.30;54.00
51476;DHT22;37554;50.362;7.568;2022-11-21T05:24:17;17.30;54.10
51476;DHT22;37554;50.362;7.568;2022-11-21T05:26:42;17.30;54.10
51476;DHT22;37554;50.362;7.568;2022-11-21T05:29:08;17.30;54.10
51476;DHT22;37554;50.362;7.568;2022-11-21T05:31:33;17.30;54.10
51476;DHT22;37554;50.362;7.568;2022-11-21T05:33:59;17.40;54.20
51476;DHT22;37554;50.362;7.568;2022-11-21T05:36:24;17.40;54.10
51476;DHT22;37554;50.362;7.568;2022-11-21T05:38:50;17.40;54.10
51476;DHT22;37554;50.362;7.568;2022-11-21T05:41:16;17.50;54.00
51476;DHT22;37554;50.362;7.568;2022-11-21T05:43:41;17.50;54.00
51476;DHT22;37554;50.362;7.568;2022-11-21T05:46:19;17.50;53.90
51476;DHT22;37554;50.362;7.568;2022-11-21T05:48:46;17.60;53.90
51476;DHT22;37554;50.362;7.568;2022-11-21T05:51:12;17.60;53.80
51476;DHT22;37554;50.362;7.568;2022-11-21T05:53:37;17.70;53.90
51476;DHT22;37554;50.362;7.568;2022-11-21T05:56:09;17.70;53.80
51476;DHT22;37554;50.362;7.568;2022-11-21T05:58:35;17.80;53.80
51476;DHT22;37554;50.362;7.568;2022-11-21T06:01:01;17.80;53.70
51476;DHT22;37554;50.362;7.568;2022-11-21T06:03:29;17.80;53.60
51476;DHT22;37554;50.362;7.568;2022-11-21T06:08:31;17.90;53.60
51476;DHT22;37554;50.362;7.568;2022-11-21T06:10:57;18.00;53.60
51476;DHT22;37554;50.362;7.568;2022-11-21T06:13:23;18.00;53.60
51476;DHT22;37554;50.362;7.568;2022-11-21T06:15:59;18.00;53.50
51476;DHT22;37554;50.362;7.568;2022-11-21T06:18:26;18.00;53.50
51476;DHT22;37554;50.362;7.568;2022-11-21T06:20:52;18.10;53.50
51476;DHT22;37554;50.362;7.568;2022-11-21T06:23:18;18.10;53.50
51476;DHT22;37554;50.362;7.568;2022-11-21T06:25:44;18.10;53.40
51476;DHT22;37554;50.362;7.568;2022-11-21T06:28:10;18.10;53.40
51476;DHT22;37554;50.362;7.568;2022-11-21T06:30:36;18.10;53.50
51476;DHT22;37554;50.362;7.568;2022-11-21T06:33:03;18.20;53.50
51476;DHT22;37554;50.362;7.568;2022-11-21T06:35:30;18.20;53.40
51476;DHT22;37554;50.362;7.568;2022-11-21T06:37:56;18.20;53.40
51476;DHT22;37554;50.362;7.568;2022-11-21T06:40:23;18.20;53.40
51476;DHT22;37554;50.362;7.568;2022-11-21T06:42:48;18.20;53.40
51476;DHT22;37554;50.362;7.568;2022-11-21T06:45:14;18.20;53.40
51476;DHT22;37554;50.362;7.568;2022-11-21T06:47:39;18.30;53.40
51476;DHT22;37554;50.362;7.568;2022-11-21T06:50:06;18.30;53.50
51476;DHT22;37554;50.362;7.568;2022-11-21T06:52:32;18.30;54.10
51476;DHT22;37554;50.362;7.568;2022-11-21T06:54:58;18.30;54.30
51476;DHT22;37554;50.362;7.568;2022-11-21T06:57:24;18.30;54.40
51476;DHT22;37554;50.362;7.568;2022-11-21T06:59:49;18.20;54.40
51476;DHT22;37554;50.362;7.568;2022-11-21T07:02:15;18.20;54.30
51476;DHT22;37554;50.362;7.568;2022-11-21T07:04:40;18.20;54.30
51476;DHT22;37554;50.362;7.568;2022-11-21T07:07:06;18.20;54.30
51476;DHT22;37554;50.362;7.568;2022-11-21T07:09:32;18.10;54.20
51476;DHT22;37554;50.362;7.568;2022-11-21T07:12:00;18.10;54.10
51476;DHT22;37554;50.362;7.568;2022-11-21T07:14:45;18.10;54.10
51476;DHT22;37554;50.362;7.568;2022-11-21T07:17:11;18.00;53.90
51476;DHT22;37554;50.362;7.568;2022-11-21T07:19:37;18.00;53.90
51476;DHT22;37554;50.362;7.568;2022-11-21T07:22:03;18.00;53.90
51476;DHT22;37554;50.362;7.568;2022-11-21T07:24:28;18.00;53.80
51476;DHT22;37554;50.362;7.568;2022-11-21T07:26:54;18.00;53.70
51476;DHT22;37554;50.362;7.568;2022-11-21T07:29:20;18.00;53.50
51476;DHT22;37554;50.362;7.568;2022-11-21T07:31:45;18.00;53.30
51476;DHT22;37554;50.362;7.568;2022-11-21T07:34:11;18.00;53.00
51476;DHT22;37554;50.362;7.568;2022-11-21T07:36:36;18.10;52.80
51476;DHT22;37554;50.362;7.568;2022-11-21T07:39:02;18.10;52.50
51476;DHT22;37554;50.362;7.568;2022-11-21T07:41:28;18.10;52.30
51476;DHT22;37554;50.362;7.568;2022-11-21T07:43:53;18.20;52.20
51476;DHT22;37554;50.362;7.568;2022-11-21T07:46:19;18.20;52.10
51476;DHT22;37554;50.362;7.568;2022-11-21T07:48:45;18.20;52.00
51476;DHT22;37554;50.362;7.568;2022-11-21T07:51:10;18.20;51.90
51476;DHT22;37554;50.362;7.568;2022-11-21T07:53:36;18.20;52.50
51476;DHT22;37554;50.362;7.568;2022-11-21T07:56:02;18.20;51.80
51476;DHT22;37554;50.362;7.568;2022-11-21T07:58:29;18.30;51.80
51476;DHT22;37554;50.362;7.568;2022-11-21T08:00:55;18.30;51.80
51476;DHT22;37554;50.362;7.568;2022-11-21T08:03:20;18.30;51.70
51476;DHT22;37554;50.362;7.568;2022-11-21T08:05:47;18.30;51.70
51476;DHT22;37554;50.362;7.568;2022-11-21T08:08:13;18.30;51.70
51476;DHT22;37554;50.362;7.568;2022-11-21T08:10:43;18.30;51.70
51476;DHT22;37554;50.362;7.568;2022-11-21T08:13:10;18.30;51.70
51476;DHT22;37554;50.362;7.568;2022-11-21T08:15:36;18.30;51.70
51476;DHT22;37554;50.362;7.568;2022-11-21T08:18:15;18.30;51.70
51476;DHT22;37554;50.362;7.568;2022-11-21T08:20:44;18.30;51.60
51476;DHT22;37554;50.362;7.568;2022-11-21T08:23:10;18.30;51.80
51476;DHT22;37554;50.362;7.568;2022-11-21T08:25:37;18.30;51.70
51476;DHT22;37554;50.362;7.568;2022-11-21T08:28:03;18.20;51.70
51476;DHT22;37554;50.362;7.568;2022-11-21T08:30:30;18.20;51.80
51476;DHT22;37554;50.362;7.568;2022-11-21T08:32:59;18.20;51.80
51476;DHT22;37554;50.362;7.568;2022-11-21T08:35:25;18.20;51.80
51476;DHT22;37554;50.362;7.568;2022-11-21T08:37:58;18.30;51.80
51476;DHT22;37554;50.362;7.568;2022-11-21T08:40:25;18.20;51.70
51476;DHT22;37554;50.362;7.568;2022-11-21T08:43:03;18.30;51.80
51476;DHT22;37554;50.362;7.568;2022-11-21T08:45:29;18.30;51.80
51476;DHT22;37554;50.362;7.568;2022-11-21T08:47:55;18.20;51.80
51476;DHT22;37554;50.362;7.568;2022-11-21T08:50:21;18.30;51.90
51476;DHT22;37554;50.362;7.568;2022-11-21T08:52:47;18.30;52.00
51476;DHT22;37554;50.362;7.568;2022-11-21T08:55:13;18.30;52.00
51476;DHT22;37554;50.362;7.568;2022-11-21T08:57:39;18.30;52.00
51476;DHT22;37554;50.362;7.568;2022-11-21T09:00:06;18.30;52.60
51476;DHT22;37554;50.362;7.568;2022-11-21T09:02:32;18.30;52.00
51476;DHT22;37554;50.362;7.568;2022-11-21T09:04:57;18.40;52.00
51476;DHT22;37554;50.362;7.568;2022-11-21T09:07:24;18.40;52.00
51476;DHT22;37554;50.362;7.568;2022-11-21T09:09:50;18.40;52.00
51476;DHT22;37554;50.362;7.568;2022-11-21T09:12:15;18.40;52.00
51476;DHT22;37554;50.362;7.568;2022-11-21T09:14:41;18.40;52.00
51476;DHT22;37554;50.362;7.568;2022-11-21T09:17:25;18.50;52.00
51476;DHT22;37554;50.362;7.568;2022-11-21T09:20:09;18.40;52.00
51476;DHT22;37554;50.362;7.568;2022-11-21T09:22:35;18.40;52.00
51476;DHT22;37554;50.362;7.568;2022-11-21T09:25:00;18.40;52.00
51476;DHT22;37554;50.362;7.568;2022-11-21T09:27:26;18.40;52.00
51476;DHT22;37554;50.362;7.568;2022-11-21T09:29:51;18.40;52.00
51476;DHT22;37554;50.362;7.568;2022-11-21T09:32:17;18.40;52.00
51476;DHT22;37554;50.362;7.568;2022-11-21T09:34:43;18.40;52.00
51476;DHT22;37554;50.362;7.568;2022-11-21T09:37:08;18.40;52.00
51476;DHT22;37554;50.362;7.568;2022-11-21T09:39:34;18.40;52.00
51476;DHT22;37554;50.362;7.568;2022-11-21T09:47:45;18.30;52.00
51476;DHT22;37554;50.362;7.568;2022-11-21T09:52:52;18.40;52.20
51476;DHT22;37554;50.362;7.568;2022-11-21T09:55:38;18.40;52.20
51476;DHT22;37554;50.362;7.568;2022-11-21T09:58:13;18.40;52.20
51476;DHT22;37554;50.362;7.568;2022-11-21T10:00:40;18.60;52.00
51476;DHT22;37554;50.362;7.568;2022-11-21T10:03:11;18.60;51.80
51476;DHT22;37554;50.362;7.568;2022-11-21T10:05:44;18.60;51.80
51476;DHT22;37554;50.362;7.568;2022-11-21T10:08:49;18.80;51.60
51476;DHT22;37554;50.362;7.568;2022-11-21T10:20:38;19.00;51.20
51476;DHT22;37554;50.362;7.568;2022-11-21T10:25:38;18.90;51.20
51476;DHT22;37554;50.362;7.568;2022-11-21T10:28:17;19.00;51.20
51476;DHT22;37554;50.362;7.568;2022-11-21T10:30:45;19.00;51.20
51476;DHT22;37554;50.362;7.568;2022-11-21T10:33:18;19.20;51.10
51476;DHT22;37554;50.362;7.568;2022-11-21T10:35:48;19.20;50.90
51476;DHT22;37554;50.362;7.568;2022-11-21T10:38:26;19.20;51.00
51476;DHT22;37554;50.362;7.568;2022-11-21T10:41:05;19.10;51.00
51476;DHT22;37554;50.362;7.568;2022-11-21T10:43:40;19.10;51.10
51476;DHT22;37554;50.362;7.568;2022-11-21T10:46:26;19.20;51.10
51476;DHT22;37554;50.362;7.568;2022-11-21T10:48:56;19.20;51.10
51476;DHT22;37554;50.362;7.568;2022-11-21T10:54:24;19.10;51.20
51476;DHT22;37554;50.362;7.568;2022-11-21T10:57:16;19.00;51.20
51476;DHT22;37554;50.362;7.568;2022-11-21T11:02:39;19.00;51.30
51476;DHT22;37554;50.362;7.568;2022-11-21T11:05:22;18.90;51.40
51476;DHT22;37554;50.362;7.568;2022-11-21T11:08:13;18.90;51.30
51476;DHT22;37554;50.362;7.568;2022-11-21T11:13:24;18.90;51.30
51476;DHT22;37554;50.362;7.568;2022-11-21T11:18:37;18.90;51.50
51476;DHT22;37554;50.362;7.568;2022-11-21T11:23:51;18.80;51.50
51476;DHT22;37554;50.362;7.568;2022-11-21T11:28:46;18.70;51.60
51476;DHT22;37554;50.362;7.568;2022-11-21T11:31:12;18.70;51.60
51476;DHT22;37554;50.362;7.568;2022-11-21T11:33:50;18.70;51.60
51476;DHT22;37554;50.362;7.568;2022-11-21T11:36:37;18.80;51.70
51476;DHT22;37554;50.362;7.568;2022-11-21T11:39:36;18.80;51.70
51476;DHT22;37554;50.362;7.568;2022-11-21T11:48:03;18.90;51.50
51476;DHT22;37554;50.362;7.568;2022-11-21T11:50:35;18.90;51.50
51476;DHT22;37554;50.362;7.568;2022-11-21T11:53:14;18.90;51.40
51476;DHT22;37554;50.362;7.568;2022-11-21T11:55:52;18.90;51.30
51476;DHT22;37554;50.362;7.568;2022-11-21T11:58:30;18.90;51.30
51476;DHT22;37554;50.362;7.568;2022-11-21T12:01:03;18.90;51.40
51476;DHT22;37554;50.362;7.568;2022-11-21T12:03:47;18.80;51.40
51476;DHT22;37554;50.362;7.568;2022-11-21T12:06:37;18.80;51.40
51476;DHT22;37554;50.362;7.568;2022-11-21T12:09:14;18.80;51.50
51476;DHT22;37554;50.362;7.568;2022-11-21T12:11:51;18.80;51.60
51476;DHT22;37554;50.362;7.568;2022-11-21T12:17:20;18.80;51.70
51476;DHT22;37554;50.362;7.568;2022-11-21T12:19:49;18.70;51.60
51476;DHT22;37554;50.362;7.568;2022-11-21T12:22:17;18.70;51.60
51476;DHT22;37554;50.362;7.568;2022-11-21T12:24:42;18.80;51.60
51476;DHT22;37554;50.362;7.568;2022-11-21T12:27:27;18.80;51.60
51476;DHT22;37554;50.362;7.568;2022-11-21T12:32:56;18.70;51.40
51476;DHT22;37554;50.362;7.568;2022-11-21T12:36:00;18.70;51.50
51476;DHT22;37554;50.362;7.568;2022-11-21T12:41:19;18.90;51.30
51476;DHT22;37554;50.362;7.568;2022-11-21T12:44:18;19.00;51.10
51476;DHT22;37554;50.362;7.568;2022-11-21T12:49:32;19.20;51.00
51476;DHT22;37554;50.362;7.568;2022-11-21T12:55:34;19.30;50.90
51476;DHT22;37554;50.362;7.568;2022-11-21T13:00:41;19.30;51.00
51476;DHT22;37554;50.362;7.568;2022-11-21T13:03:21;19.30;51.00
51476;DHT22;37554;50.362;7.568;2022-11-21T13:05:50;19.30;51.00
51476;DHT22;37554;50.362;7.568;2022-11-21T13:08:23;19.30;51.10
51476;DHT22;37554;50.362;7.568;2022-11-21T13:13:58;19.20;51.10
51476;DHT22;37554;50.362;7.568;2022-11-21T13:16:26;19.20;51.10
51476;DHT22;37554;50.362;7.568;2022-11-21T13:21:42;19.20;51.10
51476;DHT22;37554;50.362;7.568;2022-11-21T13:24:08;19.20;51.30
51476;DHT22;37554;50.362;7.568;2022-11-21T13:29:12;19.20;51.30
51476;DHT22;37554;50.362;7.568;2022-11-21T13:31:38;19.20;51.20
51476;DHT22;37554;50.362;7.568;2022-11-21T13:36:57;19.10;51.20
51476;DHT22;37554;50.362;7.568;2022-11-21T13:44:43;19.10;51.40
51476;DHT22;37554;50.362;7.568;2022-11-21T13:50:29;19.10;51.30
51476;DHT22;37554;50.362;7.568;2022-11-21T14:07:20;19.30;51.00
51476;DHT22;37554;50.362;7.568;2022-11-21T14:09:48;19.30;50.90
51476;DHT22;37554;50.362;7.568;2022-11-21T14:12:28;19.40;50.90
51476;DHT22;37554;50.362;7.568;2022-11-21T14:17:45;19.30;50.80
51476;DHT22;37554;50.362;7.568;2022-11-21T14:20:26;19.40;50.90
51476;DHT22;37554;50.362;7.568;2022-11-21T14:25:19;19.50;50.80
51476;DHT22;37554;50.362;7.568;2022-11-21T14:27:48;19.60;50.60
51476;DHT22;37554;50.362;7.568;2022-11-21T14:30:38;19.80;50.40
51476;DHT22;37554;50.362;7.568;2022-11-21T14:33:26;19.70;50.30
51476;DHT22;37554;50.362;7.568;2022-11-21T14:46:40;19.30;51.30
51476;DHT22;37554;50.362;7.568;2022-11-21T14:51:44;19.20;51.50
51476;DHT22;37554;50.362;7.568;2022-11-21T14:54:16;19.10;51.50
51476;DHT22;37554;50.362;7.568;2022-11-21T14:56:46;19.10;51.70
51476;DHT22;37554;50.362;7.568;2022-11-21T14:59:49;19.10;51.80
51476;DHT22;37554;50.362;7.568;2022-11-21T15:02:15;19.00;51.80
51476;DHT22;37554;50.362;7.568;2022-11-21T15:04:42;19.00;51.70
51476;DHT22;37554;50.362;7.568;2022-11-21T15:07:38;19.00;51.80
51476;DHT22;37554;50.362;7.568;2022-11-21T15:10:05;19.00;52.40
51476;DHT22;37554;50.362;7.568;2022-11-21T15:12:48;18.90;51.80
51476;DHT22;37554;50.362;7.568;2022-11-21T15:15:33;18.90;51.80
51476;DHT22;37554;50.362;7.568;2022-11-21T15:18:02;18.90;51.80
51476;DHT22;37554;50.362;7.568;2022-11-21T15:20:28;18.80;51.80
51476;DHT22;37554;50.362;7.568;2022-11-21T15:23:00;18.80;51.80
51476;DHT22;37554;50.362;7.568;2022-11-21T15:25:30;18.80;51.80
51476;DHT22;37554;50.362;7.568;2022-11-21T15:30:29;18.80;51.80
51476;DHT22;37554;50.362;7.568;2022-11-21T15:33:14;18.70;51.80
51476;DHT22;37554;50.362;7.568;2022-11-21T15:35:44;18.70;51.90
51476;DHT22;37554;50.362;7.568;2022-11-21T15:38:30;18.70;51.90
51476;DHT22;37554;50.362;7.568;2022-11-21T15:43:44;18.70;52.10
51476;DHT22;37554;50.362;7.568;2022-11-21T15:51:16;18.70;52.50
51476;DHT22;37554;50.362;7.568;2022-11-21T15:53:42;18.70;52.50
51476;DHT22;37554;50.362;7.568;2022-11-21T15:56:13;18.70;52.50
51476;DHT22;37554;50.362;7.568;2022-11-21T15:58:39;18.80;52.60
51476;DHT22;37554;50.362;7.568;2022-11-21T16:01:09;18.80;53.10
51476;DHT22;37554;50.362;7.568;2022-11-21T16:03:35;18.90;52.50
51476;DHT22;37554;50.362;7.568;2022-11-21T16:06:01;18.90;52.50
51476;DHT22;37554;50.362;7.568;2022-11-21T16:08:26;18.90;52.40
51476;DHT22;37554;50.362;7.568;2022-11-21T16:10:52;18.90;52.40
51476;DHT22;37554;50.362;7.568;2022-11-21T16:13:18;18.90;52.40
51476;DHT22;37554;50.362;7.568;2022-11-21T16:15:43;18.90;52.40
51476;DHT22;37554;50.362;7.568;2022-11-21T16:18:09;18.90;52.40
51476;DHT22;37554;50.362;7.568;2022-11-21T16:20:34;18.90;52.40
51476;DHT22;37554;50.362;7.568;2022-11-21T16:23:00;18.90;52.40
51476;DHT22;37554;50.362;7.568;2022-11-21T16:25:25;18.90;52.40
51476;DHT22;37554;50.362;7.568;2022-11-21T16:27:51;18.90;52.50
51476;DHT22;37554;50.362;7.568;2022-11-21T16:30:16;18.80;52.50
51476;DHT22;37554;50.362;7.568;2022-11-21T16:32:43;18.80;52.50
51476;DHT22;37554;50.362;7.568;2022-11-21T16:35:08;18.80;52.50
51476;DHT22;37554;50.362;7.568;2022-11-21T16:37:34;18.80;52.50
51476;DHT22;37554;50.362;7.568;2022-11-21T16:40:00;18.70;52.40
51476;DHT22;37554;50.362;7.568;2022-11-21T16:42:25;18.70;52.40
51476;DHT22;37554;50.362;7.568;2022-11-21T16:44:51;18.70;52.50
51476;DHT22;37554;50.362;7.568;2022-11-21T16:47:16;18.80;53.30
51476;DHT22;37554;50.362;7.568;2022-11-21T16:49:42;18.80;52.70
51476;DHT22;37554;50.362;7.568;2022-11-21T16:52:11;18.80;52.70
51476;DHT22;37554;50.362;7.568;2022-11-21T16:54:37;18.80;52.70
51476;DHT22;37554;50.362;7.568;2022-11-21T16:57:03;18.80;52.80
51476;DHT22;37554;50.362;7.568;2022-11-21T16:59:30;18.80;52.80
51476;DHT22;37554;50.362;7.568;2022-11-21T17:01:56;18.70;52.70
51476;DHT22;37554;50.362;7.568;2022-11-21T17:04:22;18.70;52.80
51476;DHT22;37554;50.362;7.568;2022-11-21T17:06:48;18.70;52.80
51476;DHT22;37554;50.362;7.568;2022-11-21T17:09:15;18.70;52.80
51476;DHT22;37554;50.362;7.568;2022-11-21T17:11:40;18.60;52.80
51476;DHT22;37554;50.362;7.568;2022-11-21T17:14:06;18.60;52.80
51476;DHT22;37554;50.362;7.568;2022-11-21T17:16:33;18.60;52.80
51476;DHT22;37554;50.362;7.568;2022-11-21T17:19:01;18.60;52.80
51476;DHT22;37554;50.362;7.568;2022-11-21T17:21:28;18.60;52.80
51476;DHT22;37554;50.362;7.568;2022-11-21T17:23:54;18.60;52.70
51476;DHT22;37554;50.362;7.568;2022-11-21T17:26:23;18.60;52.70
51476;DHT22;37554;50.362;7.568;2022-11-21T17:28:56;18.60;52.70
51476;DHT22;37554;50.362;7.568;2022-11-21T17:31:22;18.60;52.70
51476;DHT22;37554;50.362;7.568;2022-11-21T17:33:48;18.60;53.40
51476;DHT22;37554;50.362;7.568;2022-11-21T17:36:20;18.60;52.70
51476;DHT22;37554;50.362;7.568;2022-11-21T17:38:47;18.60;52.70
51476;DHT22;37554;50.362;7.568;2022-11-21T17:41:17;18.70;52.80
51476;DHT22;37554;50.362;7.568;2022-11-21T17:43:43;18.70;52.80
51476;DHT22;37554;50.362;7.568;2022-11-21T17:46:16;18.60;52.70
51476;DHT22;37554;50.362;7.568;2022-11-21T17:48:43;18.70;52.80
51476;DHT22;37554;50.362;7.568;2022-11-21T17:51:15;18.70;52.70
51476;DHT22;37554;50.362;7.568;2022-11-21T17:53:43;18.70;52.70
51476;DHT22;37554;50.362;7.568;2022-11-21T17:56:23;18.70;52.70